sensor_id;sensor_type;location;lat;lon;timestamp;P1;P2;P0
56688;PMS5003;42565;53.342;-1.534;2023-12-04T00:01:20;29;27;
56688;PMS5003;42565;53.342;-1.534;2023-12-04T00:03:48;21;20;
56688;PMS5003;42565;53.342;-1.534;2023-12-04T00:06:15;19;18;
56688;PMS5003;42565;53.342;-1.534;2023-12-04T00:08:42;19;19;
56688;PMS5003;42565;53.342;-1.534;2023-12-04T00:11:08;13;12;
56688;PMS5003;42565;53.342;-1.534;2023-12-04T00:13:35;14;14;
56688;PMS5003;42565;53.342;-1.534;2023-12-04T00:16:03;15;14;
56688;PMS5003;42565;53.342;-1.534;2023-12-04T00:18:30;17;15;
56688;PMS5003;42565;53.342;-1.534;2023-12-04T00:20:57;15;14;
56688;PMS5003;42565;53.342;-1.534;2023-12-04T00:23:23;16;13;
56688;PMS5003;42565;53.342;-1.534;2023-12-04T00:25:51;17;16;
56688;PMS5003;42565;53.342;-1.534;2023-12-04T00:28:17;16;14;
56688;PMS5003;42565;53.342;-1.534;2023-12-04T00:30:45;13;12;
56688;PMS5003;42565;53.342;-1.534;2023-12-04T00:33:13;13;12;
56688;PMS5003;42565;53.342;-1.534;2023-12-04T00:35:39;29;27;
56688;PMS5003;42565;53.342;-1.534;2023-12-04T00:38:07;24;23;
56688;PMS5003;42565;53.342;-1.534;2023-12-04T00:40:34;23;23;
56688;PMS5003;42565;53.342;-1.534;2023-12-04T00:43:02;39;39;
56688;PMS5003;42565;53.342;-1.534;2023-12-04T00:45:29;35;34;
56688;PMS5003;42565;53.342;-1.534;2023-12-04T00:47:57;16;14;
56688;PMS5003;42565;53.342;-1.534;2023-12-04T00:50:24;18;17;
56688;PMS5003;42565;53.342;-1.534;2023-12-04T00:52:51;19;18;
56688;PMS5003;42565;53.342;-1.534;2023-12-04T00:55:19;18;17;
56688;PMS5003;42565;53.342;-1.534;2023-12-04T00:57:46;22;22;
56688;PMS5003;42565;53.342;-1.534;2023-12-04T01:00:13;15;15;
56688;PMS5003;42565;53.342;-1.534;2023-12-04T01:02:41;29;28;
56688;PMS5003;42565;53.342;-1.534;2023-12-04T01:05:08;20;19;
56688;PMS5003;42565;53.342;-1.534;2023-12-04T01:07:35;20;20;
56688;PMS5003;42565;53.342;-1.534;2023-12-04T01:10:03;45;44;
56688;PMS5003;42565;53.342;-1.534;2023-12-04T01:12:31;15;14;
56688;PMS5003;42565;53.342;-1.534;2023-12-04T01:14:58;11;10;
56688;PMS5003;42565;53.342;-1.534;2023-12-04T01:17:25;13;12;
56688;PMS5003;42565;53.342;-1.534;2023-12-04T01:19:52;19;19;
56688;PMS5003;42565;53.342;-1.534;2023-12-04T01:22:19;18;14;
56688;PMS5003;42565;53.342;-1.534;2023-12-04T01:24:46;15;14;
56688;PMS5003;42565;53.342;-1.534;2023-12-04T01:27:13;15;15;
56688;PMS5003;42565;53.342;-1.534;2023-12-04T01:29:41;19;18;
56688;PMS5003;42565;53.342;-1.534;2023-12-04T01:32:08;19;18;
56688;PMS5003;42565;53.342;-1.534;2023-12-04T01:34:35;16;16;
56688;PMS5003;42565;53.342;-1.534;2023-12-04T01:37:02;46;45;
56688;PMS5003;42565;53.342;-1.534;2023-12-04T01:39:30;18;17;
56688;PMS5003;42565;53.342;-1.534;2023-12-04T01:41:57;36;35;
56688;PMS5003;42565;53.342;-1.534;2023-12-04T01:44:25;18;17;
56688;PMS5003;42565;53.342;-1.534;2023-12-04T01:46:53;16;15;
56688;PMS5003;42565;53.342;-1.534;2023-12-04T01:49:20;15;14;
56688;PMS5003;42565;53.342;-1.534;2023-12-04T01:51:48;12;10;
56688;PMS5003;42565;53.342;-1.534;2023-12-04T01:54:16;37;37;
56688;PMS5003;42565;53.342;-1.534;2023-12-04T01:56:43;15;14;
56688;PMS5003;42565;53.342;-1.534;2023-12-04T01:59:10;39;37;
56688;PMS5003;42565;53.342;-1.534;2023-12-04T02:01:37;19;18;
56688;PMS5003;42565;53.342;-1.534;2023-12-04T02:04:06;18;17;
56688;PMS5003;42565;53.342;-1.534;2023-12-04T02:06:33;14;14;
56688;PMS5003;42565;53.342;-1.534;2023-12-04T02:09:01;14;13;
56688;PMS5003;42565;53.342;-1.534;2023-12-04T02:11:28;13;11;
56688;PMS5003;42565;53.342;-1.534;2023-12-04T02:13:55;16;16;
56688;PMS5003;42565;53.342;-1.534;2023-12-04T02:16:23;11;11;
56688;PMS5003;42565;53.342;-1.534;2023-12-04T02:18:54;31;31;
56688;PMS5003;42565;53.342;-1.534;2023-12-04T02:21:20;75;74;
56688;PMS5003;42565;53.342;-1.534;2023-12-04T02:23:48;8;8;
56688;PMS5003;42565;53.342;-1.534;2023-12-04T02:26:16;7;7;
56688;PMS5003;42565;53.342;-1.534;2023-12-04T02:28:51;7;6;
56688;PMS5003;42565;53.342;-1.534;2023-12-04T02:31:24;8;7;
56688;PMS5003;42565;53.342;-1.534;2023-12-04T02:33:52;7;7;
56688;PMS5003;42565;53.342;-1.534;2023-12-04T02:36:22;7;7;
56688;PMS5003;42565;53.342;-1.534;2023-12-04T02:38:51;7;7;
56688;PMS5003;42565;53.342;-1.534;2023-12-04T02:41:19;6;6;
56688;PMS5003;42565;53.342;-1.534;2023-12-04T02:43:46;7;6;
56688;PMS5003;42565;53.342;-1.534;2023-12-04T02:46:12;7;7;
56688;PMS5003;42565;53.342;-1.534;2023-12-04T02:48:39;7;6;
56688;PMS5003;42565;53.342;-1.534;2023-12-04T02:51:06;5;5;
56688;PMS5003;42565;53.342;-1.534;2023-12-04T02:53:34;6;6;
56688;PMS5003;42565;53.342;-1.534;2023-12-04T02:56:01;5;5;
56688;PMS5003;42565;53.342;-1.534;2023-12-04T02:58:28;7;7;
56688;PMS5003;42565;53.342;-1.534;2023-12-04T03:00:55;9;9;
56688;PMS5003;42565;53.342;-1.534;2023-12-04T03:03:22;7;7;
56688;PMS5003;42565;53.342;-1.534;2023-12-04T03:05:49;8;8;
56688;PMS5003;42565;53.342;-1.534;2023-12-04T03:08:16;7;7;
56688;PMS5003;42565;53.342;-1.534;2023-12-04T03:10:42;9;8;
56688;PMS5003;42565;53.342;-1.534;2023-12-04T03:13:09;6;6;
56688;PMS5003;42565;53.342;-1.534;2023-12-04T03:15:36;6;6;
56688;PMS5003;42565;53.342;-1.534;2023-12-04T03:18:03;8;8;
56688;PMS5003;42565;53.342;-1.534;2023-12-04T03:20:31;6;6;
56688;PMS5003;42565;53.342;-1.534;2023-12-04T03:22:59;8;8;
56688;PMS5003;42565;53.342;-1.534;2023-12-04T03:25:25;9;8;
56688;PMS5003;42565;53.342;-1.534;2023-12-04T03:27:52;6;6;
56688;PMS5003;42565;53.342;-1.534;2023-12-04T03:30:19;9;7;
56688;PMS5003;42565;53.342;-1.534;2023-12-04T03:32:46;8;7;
56688;PMS5003;42565;53.342;-1.534;2023-12-04T03:35:13;10;8;
56688;PMS5003;42565;53.342;-1.534;2023-12-04T03:37:40;9;8;
56688;PMS5003;42565;53.342;-1.534;2023-12-04T03:40:08;8;8;
56688;PMS5003;42565;53.342;-1.534;2023-12-04T03:42:35;9;6;
56688;PMS5003;42565;53.342;-1.534;2023-12-04T03:45:02;7;7;
56688;PMS5003;42565;53.342;-1.534;2023-12-04T03:47:30;6;5;
56688;PMS5003;42565;53.342;-1.534;2023-12-04T03:49:57;8;7;
56688;PMS5003;42565;53.342;-1.534;2023-12-04T03:52:24;9;7;
56688;PMS5003;42565;53.342;-1.534;2023-12-04T03:54:51;8;7;
56688;PMS5003;42565;53.342;-1.534;2023-12-04T03:57:18;7;7;
56688;PMS5003;42565;53.342;-1.534;2023-12-04T03:59:45;8;7;
56688;PMS5003;42565;53.342;-1.534;2023-12-04T04:02:12;6;6;
56688;PMS5003;42565;53.342;-1.534;2023-12-04T04:04:39;6;6;
56688;PMS5003;42565;53.342;-1.534;2023-12-04T04:07:05;9;8;
56688;PMS5003;42565;53.342;-1.534;2023-12-04T04:09:33;9;8;
56688;PMS5003;42565;53.342;-1.534;2023-12-04T04:12:00;9;8;
56688;PMS5003;42565;53.342;-1.534;2023-12-04T04:14:27;8;7;
56688;PMS5003;42565;53.342;-1.534;2023-12-04T04:16:54;6;6;
56688;PMS5003;42565;53.342;-1.534;2023-12-04T04:19:21;6;6;
56688;PMS5003;42565;53.342;-1.534;2023-12-04T04:21:48;9;8;
56688;PMS5003;42565;53.342;-1.534;2023-12-04T04:24:15;7;7;
56688;PMS5003;42565;53.342;-1.534;2023-12-04T04:26:41;7;7;
56688;PMS5003;42565;53.342;-1.534;2023-12-04T04:29:08;6;6;
56688;PMS5003;42565;53.342;-1.534;2023-12-04T04:31:35;6;6;
56688;PMS5003;42565;53.342;-1.534;2023-12-04T04:34:02;7;6;
56688;PMS5003;42565;53.342;-1.534;2023-12-04T04:36:29;7;7;
56688;PMS5003;42565;53.342;-1.534;2023-12-04T04:38:56;7;6;
56688;PMS5003;42565;53.342;-1.534;2023-12-04T04:41:23;6;6;
56688;PMS5003;42565;53.342;-1.534;2023-12-04T04:43:50;6;6;
56688;PMS5003;42565;53.342;-1.534;2023-12-04T04:46:16;6;4;
56688;PMS5003;42565;53.342;-1.534;2023-12-04T04:48:43;8;7;
56688;PMS5003;42565;53.342;-1.534;2023-12-04T04:51:11;5;4;
56688;PMS5003;42565;53.342;-1.534;2023-12-04T04:53:38;6;6;
56688;PMS5003;42565;53.342;-1.534;2023-12-04T04:56:05;6;6;
56688;PMS5003;42565;53.342;-1.534;2023-12-04T04:58:34;5;5;
56688;PMS5003;42565;53.342;-1.534;2023-12-04T05:01:01;6;6;
56688;PMS5003;42565;53.342;-1.534;2023-12-04T05:03:28;6;6;
56688;PMS5003;42565;53.342;-1.534;2023-12-04T05:05:55;5;5;
56688;PMS5003;42565;53.342;-1.534;2023-12-04T05:08:22;7;6;
56688;PMS5003;42565;53.342;-1.534;2023-12-04T05:10:49;6;6;
56688;PMS5003;42565;53.342;-1.534;2023-12-04T05:13:16;5;5;
56688;PMS5003;42565;53.342;-1.534;2023-12-04T05:15:43;6;5;
56688;PMS5003;42565;53.342;-1.534;2023-12-04T05:18:10;6;6;
56688;PMS5003;42565;53.342;-1.534;2023-12-04T05:20:36;6;6;
56688;PMS5003;42565;53.342;-1.534;2023-12-04T05:23:03;5;4;
56688;PMS5003;42565;53.342;-1.534;2023-12-04T05:25:30;4;4;
56688;PMS5003;42565;53.342;-1.534;2023-12-04T05:27:57;6;6;
56688;PMS5003;42565;53.342;-1.534;2023-12-04T05:30:24;5;4;
56688;PMS5003;42565;53.342;-1.534;2023-12-04T05:32:50;6;6;
56688;PMS5003;42565;53.342;-1.534;2023-12-04T05:35:17;4;4;
56688;PMS5003;42565;53.342;-1.534;2023-12-04T05:37:44;6;6;
56688;PMS5003;42565;53.342;-1.534;2023-12-04T05:40:11;4;4;
56688;PMS5003;42565;53.342;-1.534;2023-12-04T05:42:39;5;5;
56688;PMS5003;42565;53.342;-1.534;2023-12-04T05:45:06;4;4;
56688;PMS5003;42565;53.342;-1.534;2023-12-04T05:47:33;5;4;
56688;PMS5003;42565;53.342;-1.534;2023-12-04T05:50:00;6;5;
56688;PMS5003;42565;53.342;-1.534;2023-12-04T05:52:27;5;5;
56688;PMS5003;42565;53.342;-1.534;2023-12-04T05:54:54;7;6;
56688;PMS5003;42565;53.342;-1.534;2023-12-04T05:57:21;6;6;
56688;PMS5003;42565;53.342;-1.534;2023-12-04T05:59:48;6;5;
56688;PMS5003;42565;53.342;-1.534;2023-12-04T06:02:15;5;5;
56688;PMS5003;42565;53.342;-1.534;2023-12-04T06:04:42;5;5;
56688;PMS5003;42565;53.342;-1.534;2023-12-04T06:07:08;6;5;
56688;PMS5003;42565;53.342;-1.534;2023-12-04T06:09:36;4;3;
56688;PMS5003;42565;53.342;-1.534;2023-12-04T06:12:03;6;4;
56688;PMS5003;42565;53.342;-1.534;2023-12-04T06:14:30;6;6;
56688;PMS5003;42565;53.342;-1.534;2023-12-04T06:16:57;6;6;
56688;PMS5003;42565;53.342;-1.534;2023-12-04T06:19:24;4;4;
56688;PMS5003;42565;53.342;-1.534;2023-12-04T06:21:51;7;5;
56688;PMS5003;42565;53.342;-1.534;2023-12-04T06:24:18;3;3;
56688;PMS5003;42565;53.342;-1.534;2023-12-04T06:26:45;4;4;
56688;PMS5003;42565;53.342;-1.534;2023-12-04T06:29:17;4;4;
56688;PMS5003;42565;53.342;-1.534;2023-12-04T06:31:45;6;5;
56688;PMS5003;42565;53.342;-1.534;2023-12-04T06:34:13;6;6;
56688;PMS5003;42565;53.342;-1.534;2023-12-04T06:36:40;4;4;
56688;PMS5003;42565;53.342;-1.534;2023-12-04T06:39:09;5;5;
56688;PMS5003;42565;53.342;-1.534;2023-12-04T06:41:38;4;4;
56688;PMS5003;42565;53.342;-1.534;2023-12-04T06:44:05;5;4;
56688;PMS5003;42565;53.342;-1.534;2023-12-04T06:46:35;7;6;
56688;PMS5003;42565;53.342;-1.534;2023-12-04T06:49:04;8;8;
56688;PMS5003;42565;53.342;-1.534;2023-12-04T06:51:32;5;5;
56688;PMS5003;42565;53.342;-1.534;2023-12-04T06:53:58;7;6;
56688;PMS5003;42565;53.342;-1.534;2023-12-04T06:56:25;5;5;
56688;PMS5003;42565;53.342;-1.534;2023-12-04T06:58:52;7;7;
56688;PMS5003;42565;53.342;-1.534;2023-12-04T07:01:19;10;9;
56688;PMS5003;42565;53.342;-1.534;2023-12-04T07:03:46;10;8;
56688;PMS5003;42565;53.342;-1.534;2023-12-04T07:06:13;8;8;
56688;PMS5003;42565;53.342;-1.534;2023-12-04T07:08:40;7;7;
56688;PMS5003;42565;53.342;-1.534;2023-12-04T07:11:07;10;10;
56688;PMS5003;42565;53.342;-1.534;2023-12-04T07:13:34;10;8;
56688;PMS5003;42565;53.342;-1.534;2023-12-04T07:16:01;11;10;
56688;PMS5003;42565;53.342;-1.534;2023-12-04T07:18:28;9;9;
56688;PMS5003;42565;53.342;-1.534;2023-12-04T07:20:55;10;10;
56688;PMS5003;42565;53.342;-1.534;2023-12-04T07:23:22;13;11;
56688;PMS5003;42565;53.342;-1.534;2023-12-04T07:25:48;15;13;
56688;PMS5003;42565;53.342;-1.534;2023-12-04T07:28:15;8;8;
56688;PMS5003;42565;53.342;-1.534;2023-12-04T07:30:42;14;11;
56688;PMS5003;42565;53.342;-1.534;2023-12-04T07:33:09;12;11;
56688;PMS5003;42565;53.342;-1.534;2023-12-04T07:35:36;14;14;
56688;PMS5003;42565;53.342;-1.534;2023-12-04T07:38:03;13;12;
56688;PMS5003;42565;53.342;-1.534;2023-12-04T07:40:30;20;13;
56688;PMS5003;42565;53.342;-1.534;2023-12-04T07:42:58;16;12;
56688;PMS5003;42565;53.342;-1.534;2023-12-04T07:45:25;11;11;
56688;PMS5003;42565;53.342;-1.534;2023-12-04T07:47:52;14;13;
56688;PMS5003;42565;53.342;-1.534;2023-12-04T07:50:19;17;17;
56688;PMS5003;42565;53.342;-1.534;2023-12-04T07:52:46;14;12;
56688;PMS5003;42565;53.342;-1.534;2023-12-04T07:55:13;10;10;
56688;PMS5003;42565;53.342;-1.534;2023-12-04T07:57:40;11;10;
56688;PMS5003;42565;53.342;-1.534;2023-12-04T08:00:08;10;10;
56688;PMS5003;42565;53.342;-1.534;2023-12-04T08:02:35;12;11;
56688;PMS5003;42565;53.342;-1.534;2023-12-04T08:05:03;13;13;
56688;PMS5003;42565;53.342;-1.534;2023-12-04T08:07:30;12;12;
56688;PMS5003;42565;53.342;-1.534;2023-12-04T08:09:57;9;8;
56688;PMS5003;42565;53.342;-1.534;2023-12-04T08:12:24;11;11;
56688;PMS5003;42565;53.342;-1.534;2023-12-04T08:14:51;11;10;
56688;PMS5003;42565;53.342;-1.534;2023-12-04T08:17:17;32;29;
56688;PMS5003;42565;53.342;-1.534;2023-12-04T08:19:44;48;38;
56688;PMS5003;42565;53.342;-1.534;2023-12-04T08:22:12;44;40;
56688;PMS5003;42565;53.342;-1.534;2023-12-04T08:24:38;33;31;
56688;PMS5003;42565;53.342;-1.534;2023-12-04T08:27:06;27;26;
56688;PMS5003;42565;53.342;-1.534;2023-12-04T08:29:33;26;23;
56688;PMS5003;42565;53.342;-1.534;2023-12-04T08:32:00;16;14;
56688;PMS5003;42565;53.342;-1.534;2023-12-04T08:34:27;15;13;
56688;PMS5003;42565;53.342;-1.534;2023-12-04T08:36:54;16;15;
56688;PMS5003;42565;53.342;-1.534;2023-12-04T08:39:21;12;11;
56688;PMS5003;42565;53.342;-1.534;2023-12-04T08:41:48;13;12;
56688;PMS5003;42565;53.342;-1.534;2023-12-04T08:44:15;14;14;
56688;PMS5003;42565;53.342;-1.534;2023-12-04T08:46:43;12;11;
56688;PMS5003;42565;53.342;-1.534;2023-12-04T08:49:11;12;12;
56688;PMS5003;42565;53.342;-1.534;2023-12-04T08:51:38;10;10;
56688;PMS5003;42565;53.342;-1.534;2023-12-04T08:54:06;11;10;
56688;PMS5003;42565;53.342;-1.534;2023-12-04T08:56:33;14;13;
56688;PMS5003;42565;53.342;-1.534;2023-12-04T08:59:00;12;12;
56688;PMS5003;42565;53.342;-1.534;2023-12-04T09:01:28;13;11;
56688;PMS5003;42565;53.342;-1.534;2023-12-04T09:03:54;12;11;
56688;PMS5003;42565;53.342;-1.534;2023-12-04T09:06:21;12;12;
56688;PMS5003;42565;53.342;-1.534;2023-12-04T09:08:48;15;13;
56688;PMS5003;42565;53.342;-1.534;2023-12-04T09:11:15;14;13;
56688;PMS5003;42565;53.342;-1.534;2023-12-04T09:13:43;13;12;
56688;PMS5003;42565;53.342;-1.534;2023-12-04T09:16:10;14;14;
56688;PMS5003;42565;53.342;-1.534;2023-12-04T09:18:37;14;13;
56688;PMS5003;42565;53.342;-1.534;2023-12-04T09:21:05;17;14;
56688;PMS5003;42565;53.342;-1.534;2023-12-04T09:23:32;15;14;
56688;PMS5003;42565;53.342;-1.534;2023-12-04T09:25:59;14;14;
56688;PMS5003;42565;53.342;-1.534;2023-12-04T09:28:26;15;15;
56688;PMS5003;42565;53.342;-1.534;2023-12-04T09:30:54;16;15;
56688;PMS5003;42565;53.342;-1.534;2023-12-04T09:33:20;15;14;
56688;PMS5003;42565;53.342;-1.534;2023-12-04T09:35:47;16;15;
56688;PMS5003;42565;53.342;-1.534;2023-12-04T09:38:15;18;17;
56688;PMS5003;42565;53.342;-1.534;2023-12-04T09:40:42;20;19;
56688;PMS5003;42565;53.342;-1.534;2023-12-04T09:43:10;13;13;
56688;PMS5003;42565;53.342;-1.534;2023-12-04T09:45:37;20;20;
56688;PMS5003;42565;53.342;-1.534;2023-12-04T09:48:06;17;16;
56688;PMS5003;42565;53.342;-1.534;2023-12-04T09:50:33;18;15;
56688;PMS5003;42565;53.342;-1.534;2023-12-04T09:53:01;19;17;
56688;PMS5003;42565;53.342;-1.534;2023-12-04T09:55:28;18;17;
56688;PMS5003;42565;53.342;-1.534;2023-12-04T09:57:55;19;17;
56688;PMS5003;42565;53.342;-1.534;2023-12-04T10:00:23;22;21;
56688;PMS5003;42565;53.342;-1.534;2023-12-04T10:02:51;19;18;
56688;PMS5003;42565;53.342;-1.534;2023-12-04T10:05:19;23;22;
56688;PMS5003;42565;53.342;-1.534;2023-12-04T10:07:46;26;22;
56688;PMS5003;42565;53.342;-1.534;2023-12-04T10:10:13;22;20;
56688;PMS5003;42565;53.342;-1.534;2023-12-04T10:12:40;19;18;
56688;PMS5003;42565;53.342;-1.534;2023-12-04T10:15:09;19;17;
56688;PMS5003;42565;53.342;-1.534;2023-12-04T10:17:38;21;21;
56688;PMS5003;42565;53.342;-1.534;2023-12-04T10:20:08;23;22;
56688;PMS5003;42565;53.342;-1.534;2023-12-04T10:22:36;22;21;
56688;PMS5003;42565;53.342;-1.534;2023-12-04T10:25:13;24;21;
56688;PMS5003;42565;53.342;-1.534;2023-12-04T10:27:41;20;19;
56688;PMS5003;42565;53.342;-1.534;2023-12-04T10:30:08;24;21;
56688;PMS5003;42565;53.342;-1.534;2023-12-04T10:32:36;19;18;
56688;PMS5003;42565;53.342;-1.534;2023-12-04T10:35:05;20;20;
56688;PMS5003;42565;53.342;-1.534;2023-12-04T10:37:32;20;19;
56688;PMS5003;42565;53.342;-1.534;2023-12-04T10:40:03;17;17;
56688;PMS5003;42565;53.342;-1.534;2023-12-04T10:42:31;20;19;
56688;PMS5003;42565;53.342;-1.534;2023-12-04T10:44:58;23;20;
56688;PMS5003;42565;53.342;-1.534;2023-12-04T10:47:26;21;18;
56688;PMS5003;42565;53.342;-1.534;2023-12-04T10:49:54;29;29;
56688;PMS5003;42565;53.342;-1.534;2023-12-04T10:52:22;23;21;
56688;PMS5003;42565;53.342;-1.534;2023-12-04T10:54:49;18;16;
56688;PMS5003;42565;53.342;-1.534;2023-12-04T10:57:22;33;29;
56688;PMS5003;42565;53.342;-1.534;2023-12-04T10:59:53;25;24;
56688;PMS5003;42565;53.342;-1.534;2023-12-04T11:02:25;21;19;
56688;PMS5003;42565;53.342;-1.534;2023-12-04T11:04:55;21;20;
56688;PMS5003;42565;53.342;-1.534;2023-12-04T11:07:27;29;27;
56688;PMS5003;42565;53.342;-1.534;2023-12-04T11:09:56;22;18;
56688;PMS5003;42565;53.342;-1.534;2023-12-04T11:12:25;19;18;
56688;PMS5003;42565;53.342;-1.534;2023-12-04T11:14:56;16;15;
56688;PMS5003;42565;53.342;-1.534;2023-12-04T11:17:25;15;14;
56688;PMS5003;42565;53.342;-1.534;2023-12-04T11:19:57;18;15;
56688;PMS5003;42565;53.342;-1.534;2023-12-04T11:22:29;15;15;
56688;PMS5003;42565;53.342;-1.534;2023-12-04T11:24:57;20;16;
56688;PMS5003;42565;53.342;-1.534;2023-12-04T11:27:25;20;19;
56688;PMS5003;42565;53.342;-1.534;2023-12-04T11:29:52;21;18;
56688;PMS5003;42565;53.342;-1.534;2023-12-04T11:32:19;20;19;
56688;PMS5003;42565;53.342;-1.534;2023-12-04T11:34:54;24;21;
56688;PMS5003;42565;53.342;-1.534;2023-12-04T11:37:22;19;18;
56688;PMS5003;42565;53.342;-1.534;2023-12-04T11:39:49;24;21;
56688;PMS5003;42565;53.342;-1.534;2023-12-04T11:42:18;28;23;
56688;PMS5003;42565;53.342;-1.534;2023-12-04T11:44:47;47;41;
56688;PMS5003;42565;53.342;-1.534;2023-12-04T11:47:15;59;48;
56688;PMS5003;42565;53.342;-1.534;2023-12-04T11:49:42;33;30;
56688;PMS5003;42565;53.342;-1.534;2023-12-04T11:52:09;25;24;
56688;PMS5003;42565;53.342;-1.534;2023-12-04T11:55:08;32;27;
56688;PMS5003;42565;53.342;-1.534;2023-12-04T11:57:36;25;24;
56688;PMS5003;42565;53.342;-1.534;2023-12-04T12:00:09;31;26;
56688;PMS5003;42565;53.342;-1.534;2023-12-04T12:02:38;19;19;
56688;PMS5003;42565;53.342;-1.534;2023-12-04T12:05:05;17;16;
56688;PMS5003;42565;53.342;-1.534;2023-12-04T12:07:33;24;20;
56688;PMS5003;42565;53.342;-1.534;2023-12-04T12:10:01;19;17;
56688;PMS5003;42565;53.342;-1.534;2023-12-04T12:12:28;22;18;
56688;PMS5003;42565;53.342;-1.534;2023-12-04T12:14:57;24;22;
56688;PMS5003;42565;53.342;-1.534;2023-12-04T12:17:24;19;19;
56688;PMS5003;42565;53.342;-1.534;2023-12-04T12:19:52;21;20;
56688;PMS5003;42565;53.342;-1.534;2023-12-04T12:22:20;20;20;
56688;PMS5003;42565;53.342;-1.534;2023-12-04T12:24:48;24;23;
56688;PMS5003;42565;53.342;-1.534;2023-12-04T12:27:16;21;20;
56688;PMS5003;42565;53.342;-1.534;2023-12-04T12:29:43;25;23;
56688;PMS5003;42565;53.342;-1.534;2023-12-04T12:32:10;25;24;
56688;PMS5003;42565;53.342;-1.534;2023-12-04T12:34:37;27;24;
56688;PMS5003;42565;53.342;-1.534;2023-12-04T12:37:04;21;20;
56688;PMS5003;42565;53.342;-1.534;2023-12-04T12:39:31;23;22;
56688;PMS5003;42565;53.342;-1.534;2023-12-04T12:41:59;22;20;
56688;PMS5003;42565;53.342;-1.534;2023-12-04T12:44:26;28;26;
56688;PMS5003;42565;53.342;-1.534;2023-12-04T12:46:53;26;23;
56688;PMS5003;42565;53.342;-1.534;2023-12-04T12:49:21;18;16;
56688;PMS5003;42565;53.342;-1.534;2023-12-04T12:51:48;20;20;
56688;PMS5003;42565;53.342;-1.534;2023-12-04T12:54:15;17;17;
56688;PMS5003;42565;53.342;-1.534;2023-12-04T12:56:42;27;22;
56688;PMS5003;42565;53.342;-1.534;2023-12-04T12:59:09;23;21;
56688;PMS5003;42565;53.342;-1.534;2023-12-04T13:01:36;19;17;
56688;PMS5003;42565;53.342;-1.534;2023-12-04T13:04:04;26;23;
56688;PMS5003;42565;53.342;-1.534;2023-12-04T13:06:31;22;20;
56688;PMS5003;42565;53.342;-1.534;2023-12-04T13:08:57;26;24;
56688;PMS5003;42565;53.342;-1.534;2023-12-04T13:11:24;24;21;
56688;PMS5003;42565;53.342;-1.534;2023-12-04T13:13:52;22;21;
56688;PMS5003;42565;53.342;-1.534;2023-12-04T13:16:19;23;21;
56688;PMS5003;42565;53.342;-1.534;2023-12-04T13:18:46;20;19;
56688;PMS5003;42565;53.342;-1.534;2023-12-04T13:21:14;23;22;
56688;PMS5003;42565;53.342;-1.534;2023-12-04T13:23:41;20;20;
56688;PMS5003;42565;53.342;-1.534;2023-12-04T13:26:08;23;22;
56688;PMS5003;42565;53.342;-1.534;2023-12-04T13:28:35;21;21;
56688;PMS5003;42565;53.342;-1.534;2023-12-04T13:31:03;25;23;
56688;PMS5003;42565;53.342;-1.534;2023-12-04T13:33:30;27;25;
56688;PMS5003;42565;53.342;-1.534;2023-12-04T13:35:57;25;23;
56688;PMS5003;42565;53.342;-1.534;2023-12-04T13:38:24;22;20;
56688;PMS5003;42565;53.342;-1.534;2023-12-04T13:40:51;22;19;
56688;PMS5003;42565;53.342;-1.534;2023-12-04T13:43:18;22;20;
56688;PMS5003;42565;53.342;-1.534;2023-12-04T13:45:45;19;18;
56688;PMS5003;42565;53.342;-1.534;2023-12-04T13:48:13;22;19;
56688;PMS5003;42565;53.342;-1.534;2023-12-04T13:50:39;19;19;
56688;PMS5003;42565;53.342;-1.534;2023-12-04T13:53:06;20;19;
56688;PMS5003;42565;53.342;-1.534;2023-12-04T13:55:33;20;19;
56688;PMS5003;42565;53.342;-1.534;2023-12-04T13:58:00;19;18;
56688;PMS5003;42565;53.342;-1.534;2023-12-04T14:00:27;21;20;
56688;PMS5003;42565;53.342;-1.534;2023-12-04T14:02:55;22;22;
56688;PMS5003;42565;53.342;-1.534;2023-12-04T14:05:21;19;19;
56688;PMS5003;42565;53.342;-1.534;2023-12-04T14:07:48;21;20;
56688;PMS5003;42565;53.342;-1.534;2023-12-04T14:10:15;21;20;
56688;PMS5003;42565;53.342;-1.534;2023-12-04T14:12:42;22;22;
56688;PMS5003;42565;53.342;-1.534;2023-12-04T14:15:09;24;21;
56688;PMS5003;42565;53.342;-1.534;2023-12-04T14:17:37;21;20;
56688;PMS5003;42565;53.342;-1.534;2023-12-04T14:20:05;21;20;
56688;PMS5003;42565;53.342;-1.534;2023-12-04T14:22:33;24;22;
56688;PMS5003;42565;53.342;-1.534;2023-12-04T14:25:00;26;24;
56688;PMS5003;42565;53.342;-1.534;2023-12-04T14:27:27;23;23;
56688;PMS5003;42565;53.342;-1.534;2023-12-04T14:29:54;27;26;
56688;PMS5003;42565;53.342;-1.534;2023-12-04T14:32:21;25;23;
56688;PMS5003;42565;53.342;-1.534;2023-12-04T14:34:48;27;25;
56688;PMS5003;42565;53.342;-1.534;2023-12-04T14:37:15;25;24;
56688;PMS5003;42565;53.342;-1.534;2023-12-04T14:39:42;22;19;
56688;PMS5003;42565;53.342;-1.534;2023-12-04T14:42:09;25;22;
56688;PMS5003;42565;53.342;-1.534;2023-12-04T14:44:36;23;22;
56688;PMS5003;42565;53.342;-1.534;2023-12-04T14:47:02;26;24;
56688;PMS5003;42565;53.342;-1.534;2023-12-04T14:49:30;26;25;
56688;PMS5003;42565;53.342;-1.534;2023-12-04T14:51:57;24;21;
56688;PMS5003;42565;53.342;-1.534;2023-12-04T14:54:24;22;19;
56688;PMS5003;42565;53.342;-1.534;2023-12-04T14:56:51;24;21;
56688;PMS5003;42565;53.342;-1.534;2023-12-04T14:59:19;25;23;
56688;PMS5003;42565;53.342;-1.534;2023-12-04T15:01:46;22;21;
56688;PMS5003;42565;53.342;-1.534;2023-12-04T15:04:13;19;18;
56688;PMS5003;42565;53.342;-1.534;2023-12-04T15:06:40;20;19;
56688;PMS5003;42565;53.342;-1.534;2023-12-04T15:09:07;20;17;
56688;PMS5003;42565;53.342;-1.534;2023-12-04T15:11:34;18;18;
56688;PMS5003;42565;53.342;-1.534;2023-12-04T15:14:01;21;21;
56688;PMS5003;42565;53.342;-1.534;2023-12-04T15:16:28;20;19;
56688;PMS5003;42565;53.342;-1.534;2023-12-04T15:18:55;22;21;
56688;PMS5003;42565;53.342;-1.534;2023-12-04T15:21:23;24;22;
56688;PMS5003;42565;53.342;-1.534;2023-12-04T15:23:50;27;24;
56688;PMS5003;42565;53.342;-1.534;2023-12-04T15:26:18;24;24;
56688;PMS5003;42565;53.342;-1.534;2023-12-04T15:28:44;22;21;
56688;PMS5003;42565;53.342;-1.534;2023-12-04T15:31:12;19;19;
56688;PMS5003;42565;53.342;-1.534;2023-12-04T15:33:39;22;20;
56688;PMS5003;42565;53.342;-1.534;2023-12-04T15:36:06;21;21;
56688;PMS5003;42565;53.342;-1.534;2023-12-04T15:38:34;20;18;
56688;PMS5003;42565;53.342;-1.534;2023-12-04T15:41:01;22;20;
56688;PMS5003;42565;53.342;-1.534;2023-12-04T15:43:29;20;20;
56688;PMS5003;42565;53.342;-1.534;2023-12-04T15:45:56;24;22;
56688;PMS5003;42565;53.342;-1.534;2023-12-04T15:48:23;29;26;
56688;PMS5003;42565;53.342;-1.534;2023-12-04T15:50:50;28;26;
56688;PMS5003;42565;53.342;-1.534;2023-12-04T15:53:17;27;24;
56688;PMS5003;42565;53.342;-1.534;2023-12-04T15:55:44;28;27;
56688;PMS5003;42565;53.342;-1.534;2023-12-04T15:58:11;35;28;
56688;PMS5003;42565;53.342;-1.534;2023-12-04T16:00:39;34;27;
56688;PMS5003;42565;53.342;-1.534;2023-12-04T16:03:06;34;30;
56688;PMS5003;42565;53.342;-1.534;2023-12-04T16:05:33;28;26;
56688;PMS5003;42565;53.342;-1.534;2023-12-04T16:08:00;25;25;
56688;PMS5003;42565;53.342;-1.534;2023-12-04T16:10:27;25;24;
56688;PMS5003;42565;53.342;-1.534;2023-12-04T16:12:54;32;29;